Flight Track Log - Related Links

Times and Time Zones

All times are in EDT time to prevent confusion due to time zone crossing. See the EJA929 flight status page for this flight to view local times or setup timezone preferences in your user account.

Time Position Orientation Groundspeed Altitude Reporting Facility
EDT Latitude Longitude Course Direction KTS MPH feet Rate Location/Type
Sun 04:20:17 PM 31.8017 -106.3881 242° Southwest 170 196 4,300  Level Albuquerque Center
Sun 04:20:59 PM 31.7864 -106.4217 242° Southwest 199 229 5,800 2,182 Climbing Albuquerque Center
Sun 04:21:23 PM 31.7636 -106.4158 168° South 213 245 6,700 1,967 Climbing Albuquerque Center
Sun 04:22:00 PM 31.7469 -106.3692 113° Southeast 261 300 7,800 1,548 Climbing Albuquerque Center
Sun 04:22:25 PM 31.7350 -106.3411 117° Southeast 264 304 8,300 1,931 Climbing Albuquerque Center
Sun 04:23:27 PM 31.6956 -106.2550 118° Southeast 299 344 10,600 1,500 Climbing Albuquerque Center
Sun 04:24:29 PM 31.6519 -106.1564 117° Southeast 342 394 11,400 1,403 Climbing Albuquerque Center
Sun 04:25:31 PM 31.6014 -106.0525 120° Southeast 365 420 13,500 2,226 Climbing Albuquerque Center
Sun 04:26:33 PM 31.5506 -105.9542 121° Southeast 355 409 16,000 2,516 Climbing Albuquerque Center
Sun 04:27:35 PM 31.4697 -105.8575 134° Southeast 345 397 18,700 2,274 Climbing Albuquerque Center
Sun 04:28:37 PM 31.4025 -105.7736 133° Southeast 352 405 20,700 2,000 Climbing Albuquerque Center
Sun 04:29:38 PM 31.3658 -105.6600 111° Southeast 371 427 22,800 1,951 Climbing Albuquerque Center
Sun 04:30:40 PM 31.3281 -105.5431 111° Southeast 381 438 24,700 1,790 Climbing Albuquerque Center
Sun 04:31:42 PM 31.2961 -105.4208 107° East 389 448 26,500 1,694 Climbing Albuquerque Center
Sun 04:32:44 PM 31.2525 -105.2939 112° Southeast 412 474 28,200 1,645 Climbing Albuquerque Center
Sun 04:33:46 PM 31.2083 -105.1633 112° Southeast 424 488 29,900 1,839 Climbing Albuquerque Center
Sun 04:34:48 PM 31.1558 -104.9975 110° East 443 510 32,000 1,887 Climbing Albuquerque Center
Sun 04:35:50 PM 31.1156 -104.8522 108° East 472 543 33,800 1,452 Climbing Albuquerque Center
Sun 04:36:52 PM 31.0872 -104.7019 102° East 475 547 35,000 585 Climbing Albuquerque Center
Sun 04:37:53 PM 31.0781 -104.5339 94° East 531 611 35,000  Level Albuquerque Center
Sun 04:38:55 PM 31.0728 -104.3606 92° East 539 620 35,000  Level Albuquerque Center
Sun 04:39:57 PM 31.0669 -104.1756 92° East 559 643 35,000  Level Albuquerque Center
Sun 04:40:59 PM 31.0647 -103.9953 91° East 564 649 35,000 435 Level Albuquerque Center
Sun 04:42:01 PM 31.0597 -103.8147 92° East 562 647 35,900 968 Climbing Albuquerque Center
Sun 04:43:03 PM 31.0211 -103.6092 102° East 543 625 37,000 532 Climbing Albuquerque Center
Sun 04:44:05 PM 30.9808 -103.4383 105° East 544 626 37,000  Level Albuquerque Center
Sun 04:45:06 PM 30.9406 -103.2667 105° East 547 629 37,000  Level Albuquerque Center
Sun 04:46:09 PM 30.8997 -103.0931 105° East 554 638 37,000  Level Albuquerque Center
Sun 04:47:10 PM 30.8592 -102.9217 105° East 555 639 37,000  Level Albuquerque Center
Sun 04:48:12 PM 30.8178 -102.7497 106° East 556 640 37,000  Level Albuquerque Center
Sun 04:49:14 PM 30.7683 -102.5431 106° East 557 641 37,000  Level Albuquerque Center
Sun 04:50:16 PM 30.7275 -102.3722 105° East 556 640 37,000  Level Albuquerque Center
Sun 04:51:06 PM 30.6947 -102.2344 105° East 554 638 37,000  Level Houston Center
Sun 04:52:08 PM 30.6531 -102.0636 106° East 554 638 37,000  Level Houston Center
Sun 04:53:10 PM 30.6119 -101.8917 105° East 555 639 37,000  Level Houston Center
Sun 04:54:12 PM 30.5619 -101.6869 106° East 553 636 37,000  Level Houston Center
Sun 04:55:14 PM 30.5250 -101.5394 106° East 553 636 37,000  Level Houston Center
Sun 04:56:16 PM 30.4744 -101.3347 106° East 553 636 37,000  Level Houston Center
Sun 04:57:18 PM 30.4308 -101.1650 107° East 551 634 37,000  Level Houston Center
Sun 04:58:21 PM 30.3881 -100.9936 106° East 553 636 37,000  Level Houston Center
Sun 04:59:23 PM 30.3439 -100.8228 107° East 553 636 37,000  Level Houston Center
Sun 05:00:25 PM 30.3011 -100.6525 106° East 551 634 37,000 -484 Level Houston Center
Sun 05:01:27 PM 30.2581 -100.4839 106° East 547 629 36,000 -2,177 Descending Houston Center
Sun 05:02:29 PM 30.2069 -100.2800 106° East 543 625 32,500 -3,145 Descending Houston Center
Sun 05:03:31 PM 30.1608 -100.1056 107° East 549 632 29,500 -2,855 Descending Houston Center
Sun 05:04:33 PM 30.1161 -99.9389 107° East 539 620 26,600 -2,710 Descending Houston Center
Sun 05:05:35 PM 30.0753 -99.7847 107° East 505 581 23,900 -2,516 Descending Houston Center
Sun 05:06:37 PM 30.0369 -99.6406 107° East 473 544 21,400 -2,419 Descending Houston Center
Sun 05:07:39 PM 29.9992 -99.4961 107° East 471 542 18,900 -2,489 Descending Houston Center
Sun 05:08:52 PM 29.9489 -99.3186 108° East 458 527 15,800 -2,274 Descending Houston Center
Sun 05:09:43 PM 29.9250 -99.2242 106° East 430 495 14,200 -2,219 Descending Houston Center
Sun 05:10:05 PM 29.9039 -99.1600 111° Southeast 414 476 13,100 -2,476 Descending Houston Center
Sun 05:10:46 PM 29.8733 -99.0792 114° Southeast 405 466 11,600 -2,066 Descending Houston Center
Sun 05:11:06 PM 29.8581 -99.0447 117° Southeast 393 452 11,000 -1,548 Descending Houston Center
Sun 05:11:48 PM 29.8303 -98.9639 112° Southeast 388 447 10,000 -984 Descending Houston Center
Sun 05:12:07 PM 29.8167 -98.9292 114° Southeast 341 392 10,000 -871 Level Houston Center
Sun 05:12:50 PM 29.7953 -98.8683 112° Southeast 300 345 9,100 -1,636 Descending Houston Center
Sun 05:13:57 PM 29.7633 -98.7792 112° Southeast 278 320 7,000 -1,790 Descending Houston Center
Sun 05:14:54 PM 29.7172 -98.7083 127° Southeast 275 316 5,400 -1,513 Descending Houston Center
Sun 05:15:56 PM 29.6681 -98.6478 133° Southeast 262 302 4,000 -1,161 Descending Houston Center
Sun 05:16:58 PM 29.6217 -98.5867 131° Southeast 241 277 3,000 -919 Descending Houston Center
Sun 05:18:00 PM 29.5850 -98.5386 131° Southeast 209 241 2,100 -837 Descending Houston Center
Sun 05:19:07 PM 29.5558 -98.5031 133° Southeast 123 142 1,200 -629 Descending Houston Center
Sun 05:20:04 PM 29.5344 -98.4733 130° Southeast 134 154 800 -421 Descending Houston Center
Sun 05:22:00 PM 29.5333 -98.4667 139° Southeast  Level FlightAware Approximate
Sun 05:29:00 PM 29.5340 -98.4691 139° Southeast  Level Estimated

Login

Don't have an account? Register now (free) for customized features, flight alerts, and more!